Time;durP1;ratioP1;P1;durP2;ratioP2;P2;SDS_P1;SDS_P2;PMS_P1;PMS_P2;Temp;Humidity;BMP_temperature;BMP_pressure;BME280_temperature;BME280_humidity;BME280_pressure;Samples;Min_cycle;Max_cycle;Signal;HPM_P1;HPM_P2
2022/01/19 00:00:42;;;;;;;9.25;5.10;;;;;;;-141.50;100.00;63355.56;4992159;28;20061;-80
2022/01/19 00:03:08;;;;;;;11.57;5.88;;;;;;;-141.50;100.00;63355.56;4992962;28;20085;-80
2022/01/19 00:05:35;;;;;;;10.75;6.00;;;;;;;-141.50;100.00;63355.56;4994075;28;20073;-79
2022/01/19 00:08:01;;;;;;;11.75;6.50;;;;;;;-141.50;100.00;63355.56;4993214;28;20491;-79
2022/01/19 00:10:28;;;;;;;10.07;5.65;;;;;;;-141.50;100.00;63355.56;4990866;28;20073;-78
2022/01/19 00:12:55;;;;;;;12.82;6.50;;;;;;;-141.50;100.00;63355.56;4975621;28;20050;-80
2022/01/19 00:15:23;;;;;;;10.02;5.75;;;;;;;-141.50;100.00;63355.56;4992590;28;20101;-79
2022/01/19 00:17:54;;;;;;;12.52;6.47;;;;;;;-141.50;100.00;63355.56;4991117;28;20050;-79
2022/01/19 00:20:22;;;;;;;10.45;5.70;;;;;;;-141.50;100.00;63355.56;4993754;28;20395;-79
2022/01/19 00:22:49;;;;;;;9.20;5.75;;;;;;;-141.50;100.00;63355.56;4993268;28;20050;-79
2022/01/19 00:25:16;;;;;;;11.43;6.57;;;;;;;-141.50;100.00;63355.56;4974616;28;20042;-80
2022/01/19 00:27:43;;;;;;;11.98;6.40;;;;;;;-141.50;100.00;63355.56;4975880;28;20518;-81
2022/01/19 00:30:10;;;;;;;10.43;6.18;;;;;;;-141.50;100.00;63355.56;4992952;28;20086;-80
2022/01/19 00:32:37;;;;;;;13.50;4.97;;;;;;;-141.50;100.00;63355.56;4992615;28;20092;-79
2022/01/19 00:35:05;;;;;;;13.63;6.35;;;;;;;-141.50;100.00;63355.56;4993115;28;20093;-79
2022/01/19 00:37:31;;;;;;;10.68;6.00;;;;;;;-141.50;100.00;63355.56;4975197;28;20523;-80
2022/01/19 00:39:58;;;;;;;11.02;5.93;;;;;;;-141.50;100.00;63355.56;4990156;28;20096;-79
2022/01/19 00:42:25;;;;;;;10.07;5.88;;;;;;;-141.50;100.00;63355.56;4992728;28;20078;-79
2022/01/19 00:44:51;;;;;;;9.60;5.70;;;;;;;-141.50;100.00;63355.56;4993667;28;20093;-80
2022/01/19 00:47:18;;;;;;;10.10;5.75;;;;;;;-141.50;100.00;63355.56;4992586;28;20057;-79
2022/01/19 00:49:48;;;;;;;13.40;6.22;;;;;;;-141.50;100.00;63355.56;4991562;28;20360;-78
2022/01/19 00:52:15;;;;;;;12.15;7.03;;;;;;;-141.50;100.00;63355.56;4975964;28;20515;-79
2022/01/19 00:54:42;;;;;;;14.88;7.93;;;;;;;-141.50;100.00;63355.56;4977625;28;20069;-80
2022/01/19 00:57:09;;;;;;;12.38;7.72;;;;;;;-141.50;100.00;63355.56;4974659;28;20113;-80
2022/01/19 00:59:36;;;;;;;14.27;8.90;;;;;;;-141.50;100.00;63355.56;4973454;28;20257;-81
2022/01/19 01:02:03;;;;;;;14.82;9.05;;;;;;;-141.50;100.00;63355.56;4992634;28;20051;-80
2022/01/19 01:04:33;;;;;;;14.73;9.50;;;;;;;-141.50;100.00;63355.56;4980285;28;20170;-79
2022/01/19 01:07:03;;;;;;;15.23;8.57;;;;;;;-141.50;100.00;63355.56;4987580;28;20101;-79
2022/01/19 01:09:29;;;;;;;16.25;8.60;;;;;;;-141.50;100.00;63355.56;5002420;28;20046;-79
2022/01/19 01:19:59;;;;;;;;;;;;;;;-141.50;100.00;63355.56;5012011;28;20077;-80
2022/01/19 01:22:25;;;;;;;15.00;8.70;;;;;;;-141.50;100.00;63355.56;5011276;28;20322;-79
2022/01/19 01:24:52;;;;;;;16.13;10.05;;;;;;;-141.50;100.00;63355.56;5011092;28;20042;-79
2022/01/19 01:27:19;;;;;;;15.27;9.55;;;;;;;-141.50;100.00;63355.56;4993080;28;20057;-80
2022/01/19 01:29:46;;;;;;;15.35;9.55;;;;;;;-141.50;100.00;63355.56;5002618;28;20080;-80
2022/01/19 01:32:12;;;;;;;14.88;9.30;;;;;;;-141.50;100.00;63355.56;5001384;28;20065;-80
2022/01/19 01:34:39;;;;;;;14.32;9.20;;;;;;;-141.50;100.00;63355.56;5000511;28;20114;-80
2022/01/19 01:37:06;;;;;;;16.85;9.63;;;;;;;-141.50;100.00;63355.56;5001435;28;20077;-80
2022/01/19 01:39:32;;;;;;;14.35;8.93;;;;;;;-141.50;100.00;63355.56;5001321;28;20053;-79
2022/01/19 01:41:59;;;;;;;17.15;9.13;;;;;;;-141.50;100.00;63355.56;4998827;28;20112;-79
2022/01/19 01:44:33;;;;;;;15.73;9.27;;;;;;;-141.50;100.00;63355.56;5002719;28;20046;-80
2022/01/19 01:47:00;;;;;;;14.60;8.88;;;;;;;-141.50;100.00;63355.56;4986338;28;20054;-80
2022/01/19 01:49:46;;;;;;;17.13;9.40;;;;;;;-141.50;100.00;63355.56;4992630;28;20054;-80
2022/01/19 01:55:03;;;;;;;14.82;8.45;;;;;;;-141.50;100.00;63355.56;5011715;28;20115;-79
2022/01/19 01:57:29;;;;;;;14.07;8.48;;;;;;;-141.50;100.00;63355.56;5012779;28;20569;-79
2022/01/19 01:59:56;;;;;;;15.15;8.57;;;;;;;-141.50;100.00;63355.56;4996679;28;20049;-79
2022/01/19 02:02:22;;;;;;;14.23;7.95;;;;;;;-141.50;100.00;63355.56;4997140;28;20128;-79
2022/01/19 02:04:49;;;;;;;14.00;8.65;;;;;;;-141.50;100.00;63355.56;5026684;28;20056;-79
2022/01/19 02:09:50;;;;;;;15.07;9.48;;;;;;;-141.50;100.00;63355.56;5015642;28;20050;-79
2022/01/19 02:26:07;;;;;;;15.35;8.88;;;;;;;-141.50;100.00;63355.56;5016414;28;20064;-80
2022/01/19 02:31:48;;;;;;;13.13;5.93;;;;;;;-141.50;100.00;63355.56;5014763;28;20564;-80
2022/01/19 02:42:52;;;;;;;6.43;4.43;;;;;;;-141.50;100.00;63355.56;5012733;28;20057;-79
2022/01/19 02:50:32;;;;;;;9.18;4.65;;;;;;;-141.50;100.00;63355.56;5014256;28;20599;-80
2022/01/19 02:52:59;;;;;;;6.18;4.00;;;;;;;-141.50;100.00;63355.56;5012817;28;20077;-82
2022/01/19 02:55:25;;;;;;;7.90;4.45;;;;;;;-141.50;100.00;63355.56;5013969;28;20448;-80
2022/01/19 02:57:52;;;;;;;7.00;4.40;;;;;;;-141.50;100.00;63355.56;4995334;28;20057;-80
2022/01/19 03:08:50;;;;;;;7.93;5.05;;;;;;;-141.50;100.00;63355.56;5012927;28;20209;-80
2022/01/19 03:11:19;;;;;;;6.72;4.30;;;;;;;-141.50;100.00;63355.56;4996191;28;20057;-80
2022/01/19 03:13:46;;;;;;;9.40;5.47;;;;;;;-141.50;100.00;63355.56;5012622;28;20505;-80
2022/01/19 03:16:14;;;;;;;8.50;4.80;;;;;;;-141.50;100.00;63355.56;5013320;28;20095;-80
2022/01/19 03:18:41;;;;;;;9.52;5.28;;;;;;;-141.50;100.00;63355.56;4994899;28;20054;-80
2022/01/19 03:21:08;;;;;;;8.93;5.03;;;;;;;-141.50;100.00;63355.56;4996477;28;20084;-80
2022/01/19 03:23:35;;;;;;;8.57;5.50;;;;;;;-141.50;100.00;63355.56;5013528;28;20129;-80
2022/01/19 03:26:06;;;;;;;7.95;5.20;;;;;;;-141.50;100.00;63355.56;5013643;28;20073;-80
2022/01/19 03:28:34;;;;;;;9.75;5.68;;;;;;;-141.50;100.00;63355.56;5028951;28;20037;-80
2022/01/19 03:31:02;;;;;;;9.45;5.95;;;;;;;-141.50;100.00;63355.56;5018109;28;20130;-81
2022/01/19 03:33:28;;;;;;;11.43;6.82;;;;;;;-141.50;100.00;63355.56;5020193;28;20104;-80
2022/01/19 03:35:55;;;;;;;11.40;5.90;;;;;;;-141.50;100.00;63355.56;5014273;28;20088;-81
2022/01/19 03:38:22;;;;;;;10.25;5.55;;;;;;;-141.50;100.00;63355.56;4996854;28;20514;-80
2022/01/19 03:40:49;;;;;;;9.20;5.72;;;;;;;-141.50;100.00;63355.56;4996989;28;20050;-80
2022/01/19 03:43:15;;;;;;;12.15;6.15;;;;;;;-141.50;100.00;63355.56;4996208;28;20446;-80
2022/01/19 03:45:50;;;;;;;9.27;5.68;;;;;;;-141.50;100.00;63355.56;5015136;28;20053;-80
2022/01/19 03:48:34;;;;;;;9.48;5.57;;;;;;;-141.50;100.00;63355.56;5012855;28;20165;-80
2022/01/19 03:51:02;;;;;;;9.35;5.55;;;;;;;-141.50;100.00;63355.56;5018765;28;20061;-78
2022/01/19 03:53:29;;;;;;;9.90;5.82;;;;;;;-141.50;100.00;63355.56;5014193;28;20053;-80
2022/01/19 03:55:56;;;;;;;9.98;6.00;;;;;;;-141.50;100.00;63355.56;5013223;28;20045;-81
2022/01/19 03:58:24;;;;;;;10.93;6.05;;;;;;;-141.50;100.00;63355.56;4994608;28;20127;-81
2022/01/19 04:00:54;;;;;;;8.90;5.40;;;;;;;-141.50;100.00;63355.56;5011793;28;20050;-80
2022/01/19 04:03:33;;;;;;;8.60;5.78;;;;;;;-141.50;100.00;63355.56;5013116;28;20057;-81
2022/01/19 04:06:16;;;;;;;10.75;6.50;;;;;;;-141.50;100.00;63355.56;4995847;28;20124;-80
2022/01/19 04:08:42;;;;;;;10.38;6.47;;;;;;;-141.50;100.00;63355.56;5012138;28;20053;-80
2022/01/19 04:11:10;;;;;;;9.95;6.38;;;;;;;-141.50;100.00;63355.56;4994886;28;20057;-81
2022/01/19 04:16:21;;;;;;;9.55;6.05;;;;;;;-141.50;100.00;63355.56;5013663;28;20045;-80
2022/01/19 04:18:48;;;;;;;12.02;6.75;;;;;;;-141.50;100.00;63355.56;4992703;28;20077;-81
2022/01/19 04:21:15;;;;;;;9.95;6.38;;;;;;;-141.50;100.00;63355.56;5012207;28;20045;-80
2022/01/19 04:23:42;;;;;;;10.95;6.85;;;;;;;-141.50;100.00;63355.56;5012251;28;20046;-80
2022/01/19 04:26:08;;;;;;;13.52;7.47;;;;;;;-141.50;100.00;63355.56;5012868;28;20246;-80
2022/01/19 04:28:36;;;;;;;11.15;7.40;;;;;;;-141.50;100.00;63355.56;5011478;28;20486;-80
2022/01/19 04:31:03;;;;;;;13.38;7.47;;;;;;;-141.50;100.00;63355.56;5018285;28;20042;-80
2022/01/19 04:33:29;;;;;;;11.60;7.10;;;;;;;-141.50;100.00;63355.56;5015460;28;20050;-80
2022/01/19 04:36:17;;;;;;;12.57;7.80;;;;;;;-141.50;100.00;63355.56;5014812;28;20078;-80
2022/01/19 04:39:20;;;;;;;11.68;7.63;;;;;;;-141.50;100.00;63355.56;5013658;28;20054;-80
2022/01/19 04:47:46;;;;;;;14.70;8.82;;;;;;;-141.50;100.00;63355.56;4998579;28;20062;-80
2022/01/19 05:04:06;;;;;;;16.10;9.48;;;;;;;-141.50;100.00;63355.56;5020539;28;20046;-79
2022/01/19 05:06:40;;;;;;;13.93;9.13;;;;;;;-141.50;100.00;63355.56;4999927;28;20073;-79
2022/01/19 05:09:11;;;;;;;12.57;8.13;;;;;;;-141.50;100.00;63355.56;5001040;28;20045;-81
2022/01/19 05:14:23;;;;;;;14.75;8.80;;;;;;;-141.50;100.00;63355.56;5024878;28;20053;-79
2022/01/19 05:16:49;;;;;;;15.07;8.82;;;;;;;-141.50;100.00;63355.56;5019369;28;20073;-80
2022/01/19 05:19:16;;;;;;;11.35;7.70;;;;;;;-141.50;100.00;63355.56;5011264;28;20157;-80
2022/01/19 05:21:42;;;;;;;12.45;8.13;;;;;;;-141.50;100.00;63355.56;5011425;28;20557;-79
2022/01/19 05:24:09;;;;;;;13.88;7.53;;;;;;;-141.50;100.00;63355.56;5011737;28;20119;-80
2022/01/19 05:26:37;;;;;;;14.85;8.13;;;;;;;-141.50;100.00;63355.56;5008977;28;20494;-81
2022/01/19 05:29:03;;;;;;;13.23;8.32;;;;;;;-141.50;100.00;63355.56;5013249;28;20120;-80
2022/01/19 05:31:30;;;;;;;13.30;7.93;;;;;;;-141.50;100.00;63355.56;5013030;28;20125;-80
2022/01/19 05:33:57;;;;;;;11.15;7.35;;;;;;;-141.50;100.00;63355.56;5017213;28;20054;-80
2022/01/19 05:36:23;;;;;;;12.63;7.88;;;;;;;-141.50;100.00;63355.56;5000236;28;20054;-79
2022/01/19 05:38:50;;;;;;;12.70;7.90;;;;;;;-141.50;100.00;63355.56;5019616;28;20096;-80
2022/01/19 05:41:17;;;;;;;14.73;7.88;;;;;;;-141.50;100.00;63355.56;5019496;28;20554;-81
2022/01/19 05:43:43;;;;;;;11.68;7.93;;;;;;;-141.50;100.00;63355.56;5020157;28;20061;-81
2022/01/19 05:46:10;;;;;;;11.18;6.97;;;;;;;-141.50;100.00;63355.56;5004001;28;20561;-81
2022/01/19 05:48:36;;;;;;;12.07;7.50;;;;;;;-141.50;100.00;63355.56;5020412;28;20050;-80
2022/01/19 05:51:03;;;;;;;10.35;6.75;;;;;;;-141.50;100.00;63355.56;5002738;28;20505;-81
2022/01/19 05:53:33;;;;;;;12.68;7.60;;;;;;;-141.50;100.00;63355.56;5022318;28;20104;-80
2022/01/19 05:56:00;;;;;;;11.95;7.68;;;;;;;-141.50;100.00;63355.56;5008430;28;20050;-80
2022/01/19 05:58:27;;;;;;;12.38;6.78;;;;;;;-141.50;100.00;63355.56;5018172;28;20053;-81
2022/01/19 06:00:53;;;;;;;11.73;6.72;;;;;;;-141.50;100.00;63355.56;5001939;28;20069;-80
2022/01/19 06:03:20;;;;;;;11.85;6.18;;;;;;;-141.50;100.00;63355.56;5021675;28;20060;-80
2022/01/19 06:05:46;;;;;;;10.05;6.00;;;;;;;-141.50;100.00;63355.56;5023510;28;20050;-79
2022/01/19 06:10:57;;;;;;;12.27;6.80;;;;;;;-141.50;100.00;63355.56;5016525;28;20103;-81
2022/01/19 06:13:25;;;;;;;10.10;6.28;;;;;;;-141.50;100.00;63355.56;5017421;28;20058;-81
2022/01/19 06:15:52;;;;;;;11.20;6.60;;;;;;;-141.50;100.00;63355.56;5001085;28;20487;-81
2022/01/19 06:18:19;;;;;;;12.02;7.00;;;;;;;-141.50;100.00;63355.56;5018823;28;20077;-81
2022/01/19 06:20:46;;;;;;;11.05;6.63;;;;;;;-141.50;100.00;63355.56;5019514;28;20054;-82
2022/01/19 06:23:13;;;;;;;13.27;6.80;;;;;;;-141.50;100.00;63355.56;5019242;28;20053;-81
2022/01/19 06:25:42;;;;;;;13.25;7.60;;;;;;;-141.50;100.00;63355.56;5002101;28;20050;-80
2022/01/19 06:28:09;;;;;;;13.68;7.28;;;;;;;-141.50;100.00;63355.56;4992833;28;20060;-81
2022/01/19 06:30:36;;;;;;;12.52;7.10;;;;;;;-141.50;100.00;63355.56;4997146;28;20053;-80
2022/01/19 06:33:03;;;;;;;12.35;6.75;;;;;;;-141.50;100.00;63355.56;4998070;28;20084;-82
2022/01/19 06:35:30;;;;;;;13.57;7.18;;;;;;;-141.50;100.00;63355.56;5001097;28;20050;-82
2022/01/19 06:37:57;;;;;;;18.67;7.80;;;;;;;-141.50;100.00;63355.56;5019961;28;20061;-81
2022/01/19 06:40:27;;;;;;;15.05;7.82;;;;;;;-141.50;100.00;63355.56;5029424;28;20104;-81
2022/01/19 06:42:54;;;;;;;13.55;8.25;;;;;;;-141.50;100.00;63355.56;5000752;28;20054;-81
2022/01/19 06:45:22;;;;;;;17.75;8.80;;;;;;;-141.50;100.00;63355.56;5000197;28;20073;-81
2022/01/19 06:47:49;;;;;;;14.55;7.63;;;;;;;-141.50;100.00;63355.56;5013749;28;20038;-79
2022/01/19 06:50:19;;;;;;;15.38;7.57;;;;;;;-141.50;100.00;63355.56;5013992;28;20096;-80
2022/01/19 06:52:47;;;;;;;14.88;7.57;;;;;;;-141.50;100.00;63355.56;5015102;28;20490;-80
2022/01/19 06:55:15;;;;;;;11.90;6.72;;;;;;;-141.50;100.00;63355.56;5027597;28;20126;-80
2022/01/19 06:57:44;;;;;;;12.75;6.95;;;;;;;-141.50;100.00;63355.56;5023343;28;20053;-80
2022/01/19 07:00:13;;;;;;;12.07;7.22;;;;;;;-141.50;100.00;63355.56;5000183;28;20130;-80
2022/01/19 07:02:39;;;;;;;12.75;7.45;;;;;;;-141.50;100.00;63355.56;5017107;28;20054;-80
2022/01/19 07:05:07;;;;;;;13.00;7.22;;;;;;;-141.50;100.00;63355.56;5017786;28;20046;-80
2022/01/19 07:07:33;;;;;;;13.10;7.45;;;;;;;-141.50;100.00;63355.56;5027649;28;20042;-80
2022/01/19 07:10:00;;;;;;;12.32;7.25;;;;;;;-141.50;100.00;63355.56;5013922;28;20058;-80
2022/01/19 07:12:26;;;;;;;13.65;7.65;;;;;;;-141.50;100.00;63355.56;5014564;28;20081;-80
2022/01/19 07:14:53;;;;;;;13.98;7.97;;;;;;;-141.50;100.00;63355.56;5021428;28;20745;-80
2022/01/19 07:17:20;;;;;;;12.30;7.45;;;;;;;-141.50;100.00;63355.56;5013372;28;20112;-81
2022/01/19 07:19:47;;;;;;;12.82;7.60;;;;;;;-141.50;100.00;63355.56;4995219;28;20900;-81
2022/01/19 07:22:15;;;;;;;20.67;10.10;;;;;;;-141.50;100.00;63355.56;5016512;28;20054;-82
2022/01/19 07:24:43;;;;;;;43.33;18.88;;;;;;;-141.50;100.00;63355.56;5021664;28;20045;-81
2022/01/19 07:27:09;;;;;;;59.33;23.70;;;;;;;-141.50;100.00;63355.56;5010278;28;20065;-80
2022/01/19 07:29:36;;;;;;;61.55;25.35;;;;;;;-141.50;100.00;63355.56;4994246;28;20054;-80
2022/01/19 07:32:03;;;;;;;76.57;29.35;;;;;;;-141.50;100.00;63355.56;4995587;28;20474;-80
2022/01/19 07:34:29;;;;;;;73.35;28.73;;;;;;;-141.50;100.00;63355.56;5011581;28;20186;-80
2022/01/19 07:36:56;;;;;;;56.65;23.27;;;;;;;-141.50;100.00;63355.56;4993922;28;20101;-80
2022/01/19 07:39:23;;;;;;;47.70;20.05;;;;;;;-141.50;100.00;63355.56;4994760;28;20062;-79
2022/01/19 07:41:50;;;;;;;44.47;18.90;;;;;;;-141.50;100.00;63355.56;5011168;28;20116;-79
2022/01/19 07:44:17;;;;;;;47.92;19.23;;;;;;;-141.50;100.00;63355.56;5011221;28;20490;-80
2022/01/19 07:46:43;;;;;;;60.88;25.30;;;;;;;-141.50;100.00;63355.56;4991782;28;20069;-80
2022/01/19 07:49:10;;;;;;;58.63;25.08;;;;;;;-141.50;100.00;63355.56;5011087;28;20185;-80
2022/01/19 07:51:37;;;;;;;48.63;22.25;;;;;;;-141.50;100.00;63355.56;4994765;28;20050;-80
2022/01/19 07:54:03;;;;;;;36.50;16.98;;;;;;;-141.50;100.00;63355.56;5011045;28;20046;-80
2022/01/19 07:56:30;;;;;;;21.02;12.05;;;;;;;-141.50;100.00;63355.56;5013018;28;20054;-81
2022/01/19 07:58:57;;;;;;;20.92;11.15;;;;;;;-141.50;100.00;63355.56;4996984;28;20606;-80
2022/01/19 08:01:31;;;;;;;22.50;11.60;;;;;;;-141.50;100.00;63355.56;5011362;28;20424;-79
2022/01/19 08:04:04;;;;;;;18.42;11.10;;;;;;;-141.50;100.00;63355.56;4993392;28;20050;-80
2022/01/19 08:06:31;;;;;;;16.55;9.98;;;;;;;-141.50;100.00;63355.56;4995859;28;20046;-80
2022/01/19 08:08:57;;;;;;;14.38;9.05;;;;;;;-141.50;100.00;63355.56;5002404;28;20053;-80
2022/01/19 08:11:24;;;;;;;14.02;8.23;;;;;;;-141.50;100.00;63355.56;5002290;28;20054;-80
2022/01/19 08:13:51;;;;;;;14.13;8.68;;;;;;;-141.50;100.00;63355.56;5023539;28;20197;-82
2022/01/19 08:16:17;;;;;;;13.32;8.07;;;;;;;-141.50;100.00;63355.56;5012728;28;20108;-80
2022/01/19 08:18:44;;;;;;;13.05;7.97;;;;;;;-141.50;100.00;63355.56;5022287;28;20041;-79
2022/01/19 08:21:11;;;;;;;15.13;9.30;;;;;;;-141.50;100.00;63355.56;5013725;28;20050;-81
2022/01/19 08:23:39;;;;;;;14.93;9.55;;;;;;;-141.50;100.00;63355.56;5011271;28;20108;-80
2022/01/19 08:26:06;;;;;;;14.18;8.70;;;;;;;-141.50;100.00;63355.56;4992821;28;20094;-80
2022/01/19 08:28:32;;;;;;;13.20;7.70;;;;;;;-141.50;100.00;63355.56;4989610;28;20061;-80
2022/01/19 08:30:59;;;;;;;12.68;7.65;;;;;;;-141.50;100.00;63355.56;4994271;28;20100;-81
2022/01/19 08:33:25;;;;;;;13.85;8.40;;;;;;;-141.50;100.00;63355.56;5008284;28;20140;-80
2022/01/19 08:35:52;;;;;;;14.13;8.63;;;;;;;-141.50;100.00;63355.56;4994262;28;20105;-81
2022/01/19 08:38:18;;;;;;;13.63;8.88;;;;;;;-141.50;100.00;63355.56;4990311;28;20046;-79
2022/01/19 08:40:45;;;;;;;12.00;7.90;;;;;;;-141.50;100.00;63355.56;4990893;28;20361;-80
2022/01/19 08:43:12;;;;;;;13.50;7.97;;;;;;;-141.50;100.00;63355.56;5004716;28;20057;-81
2022/01/19 08:45:38;;;;;;;13.48;8.45;;;;;;;-141.50;100.00;63355.56;5012196;28;20191;-80
2022/01/19 08:48:05;;;;;;;15.95;9.40;;;;;;;-141.50;100.00;63355.56;5016160;28;20072;-82
2022/01/19 08:50:31;;;;;;;16.42;10.13;;;;;;;-141.50;100.00;63355.56;5004003;28;20046;-80
2022/01/19 08:52:58;;;;;;;16.20;9.90;;;;;;;-141.50;100.00;63355.56;5016387;28;20054;-80
2022/01/19 08:55:24;;;;;;;17.20;10.15;;;;;;;-141.50;100.00;63355.56;5016829;28;20053;-80
2022/01/19 08:57:51;;;;;;;19.15;11.23;;;;;;;-141.50;100.00;63355.56;4992091;28;20081;-79
2022/01/19 09:00:19;;;;;;;20.48;12.80;;;;;;;-141.50;100.00;63355.56;5010879;28;20069;-80
2022/01/19 09:02:47;;;;;;;22.05;13.55;;;;;;;-141.50;100.00;63355.56;5008765;28;20065;-79
2022/01/19 09:05:14;;;;;;;17.52;10.95;;;;;;;-141.50;100.00;63355.56;5014239;28;20081;-79
2022/01/19 09:07:40;;;;;;;15.88;9.82;;;;;;;-141.50;100.00;63355.56;4995542;28;20446;-81
2022/01/19 09:10:12;;;;;;;15.27;8.65;;;;;;;-141.50;100.00;63355.56;5016015;28;20137;-82
2022/01/19 09:12:40;;;;;;;11.82;7.78;;;;;;;-141.50;100.00;63355.56;5016149;28;20577;-82
2022/01/19 09:15:07;;;;;;;11.70;7.85;;;;;;;-141.50;100.00;63355.56;5024442;28;20058;-81
2022/01/19 09:17:34;;;;;;;12.85;7.50;;;;;;;-141.50;100.00;63355.56;5012676;28;20072;-81
2022/01/19 09:20:04;;;;;;;12.95;8.27;;;;;;;-141.50;100.00;63355.56;5009388;28;20077;-81
2022/01/19 09:22:32;;;;;;;16.15;8.30;;;;;;;-141.50;100.00;63355.56;5016145;28;20495;-81
2022/01/19 09:25:00;;;;;;;15.35;8.63;;;;;;;-141.50;100.00;63355.56;4997915;28;20425;-81
2022/01/19 09:27:27;;;;;;;13.55;8.73;;;;;;;-141.50;100.00;63355.56;4999838;28;20069;-81
2022/01/19 09:29:54;;;;;;;19.48;10.18;;;;;;;-141.50;100.00;63355.56;5019330;28;20081;-80
2022/01/19 09:32:22;;;;;;;15.32;9.38;;;;;;;-141.50;100.00;63355.56;5021379;28;20057;-82
2022/01/19 09:34:56;;;;;;;16.60;9.57;;;;;;;-141.50;100.00;63355.56;4996333;28;20113;-81
2022/01/19 09:37:23;;;;;;;16.20;9.90;;;;;;;-141.50;100.00;63355.56;4990380;28;20096;-81
2022/01/19 09:39:50;;;;;;;16.65;9.95;;;;;;;-141.50;100.00;63355.56;5012909;28;20050;-80
2022/01/19 09:42:17;;;;;;;16.55;10.30;;;;;;;-141.50;100.00;63355.56;5022393;28;20346;-81
2022/01/19 09:44:43;;;;;;;15.93;9.30;;;;;;;-141.50;100.00;63355.56;5022221;28;20418;-82
2022/01/19 09:47:10;;;;;;;14.68;8.68;;;;;;;-141.50;100.00;63355.56;5011564;28;20610;-81
2022/01/19 09:49:36;;;;;;;14.52;8.65;;;;;;;-141.50;100.00;63355.56;5018646;28;20061;-83
2022/01/19 09:52:03;;;;;;;15.48;8.57;;;;;;;-141.50;100.00;63355.56;5016618;28;20050;-81
2022/01/19 09:54:30;;;;;;;14.10;8.70;;;;;;;-141.50;100.00;63355.56;5016255;28;20154;-80
2022/01/19 09:56:58;;;;;;;16.13;9.07;;;;;;;-141.50;100.00;63355.56;5014576;28;20050;-81
2022/01/19 09:59:26;;;;;;;13.82;8.57;;;;;;;-141.50;100.00;63355.56;4999769;28;20127;-82
2022/01/19 10:02:04;;;;;;;14.05;8.43;;;;;;;-141.50;100.00;63355.56;5013658;28;20104;-82
2022/01/19 10:04:34;;;;;;;15.23;9.30;;;;;;;-141.50;100.00;63355.56;5013825;28;20050;-81
2022/01/19 10:07:16;;;;;;;14.02;8.60;;;;;;;-141.50;100.00;63355.56;4994929;28;20066;-82
2022/01/19 10:10:01;;;;;;;12.15;7.65;;;;;;;-141.50;100.00;63355.56;5009407;28;20042;-82
2022/01/19 10:18:15;;;;;;;10.18;6.80;;;;;;;-141.50;100.00;63355.56;5013482;28;20042;-82
2022/01/19 10:20:42;;;;;;;9.23;6.32;;;;;;;-141.50;100.00;63355.56;5012373;28;20073;-81
2022/01/19 10:23:37;;;;;;;10.68;6.45;;;;;;;-141.50;100.00;63355.56;5012888;28;20056;-82
2022/01/19 10:26:08;;;;;;;8.55;6.10;;;;;;;-141.50;100.00;63355.56;5013190;28;20046;-82
2022/01/19 10:28:54;;;;;;;9.80;6.43;;;;;;;-141.50;100.00;63355.56;5012049;28;20046;-81
2022/01/19 10:31:20;;;;;;;12.10;6.53;;;;;;;-141.50;100.00;63355.56;5015054;28;20061;-82
2022/01/19 10:34:08;;;;;;;9.75;6.72;;;;;;;-141.50;100.00;63355.56;5013336;28;20117;-82
2022/01/19 10:36:42;;;;;;;7.45;5.72;;;;;;;-141.50;100.00;63355.56;5013334;28;20096;-82
2022/01/19 10:39:09;;;;;;;8.48;6.15;;;;;;;-141.50;100.00;63355.56;4995121;28;20053;-81
2022/01/19 10:41:56;;;;;;;7.97;5.88;;;;;;;-141.50;100.00;63355.56;5013210;28;20450;-81
2022/01/19 10:44:58;;;;;;;9.50;6.45;;;;;;;-141.50;100.00;63355.56;5012277;28;20392;-82
2022/01/19 10:47:36;;;;;;;9.63;6.78;;;;;;;-141.50;100.00;63355.56;4996290;28;20061;-81
2022/01/19 10:50:04;;;;;;;9.00;6.72;;;;;;;-141.50;100.00;63355.56;5012695;28;20054;-83
2022/01/19 10:52:34;;;;;;;7.28;5.80;;;;;;;-141.50;100.00;63355.56;4995720;28;20061;-82
2022/01/19 10:55:03;;;;;;;9.90;7.00;;;;;;;-141.50;100.00;63355.56;5013535;28;20054;-82
2022/01/19 10:57:32;;;;;;;10.88;7.18;;;;;;;-141.50;100.00;63355.56;4995668;28;20507;-83
2022/01/19 11:00:17;;;;;;;10.13;6.95;;;;;;;-141.50;100.00;63355.56;5010583;28;20116;-82
2022/01/19 11:02:46;;;;;;;9.20;6.95;;;;;;;-141.50;100.00;63355.56;4996505;28;20048;-82
2022/01/19 11:05:16;;;;;;;12.48;7.00;;;;;;;-141.50;100.00;63355.56;5011251;28;20625;-82
2022/01/19 11:07:43;;;;;;;8.77;6.40;;;;;;;-141.50;100.00;63355.56;4995954;28;20046;-83
2022/01/19 11:10:13;;;;;;;9.98;6.72;;;;;;;-141.50;100.00;63355.56;4983297;28;20204;-82
2022/01/19 11:12:49;;;;;;;7.72;5.80;;;;;;;-141.50;100.00;63355.56;5009020;28;20483;-83
2022/01/19 11:15:18;;;;;;;;;;;;;;;-141.50;100.00;63355.56;5013240;28;20057;-82
2022/01/19 11:17:46;;;;;;;7.57;5.63;;;;;;;-141.50;100.00;63355.56;5017531;28;19976;-82
2022/01/19 11:20:20;;;;;;;7.93;5.70;;;;;;;-141.50;100.00;63355.56;5009981;28;20115;-82
2022/01/19 11:23:09;;;;;;;6.80;5.38;;;;;;;-141.50;100.00;63355.56;4994543;28;20552;-81
2022/01/19 11:25:39;;;;;;;7.07;5.28;;;;;;;-141.50;100.00;63355.56;5011860;28;20042;-82
2022/01/19 11:28:23;;;;;;;7.57;5.30;;;;;;;-141.50;100.00;63355.56;5019345;28;20486;-82
2022/01/19 11:30:50;;;;;;;6.90;5.50;;;;;;;-141.50;100.00;63355.56;5014576;28;20054;-82
2022/01/19 11:33:27;;;;;;;8.93;5.82;;;;;;;-141.50;100.00;63355.56;4995527;28;20115;-82
2022/01/19 11:36:05;;;;;;;7.60;5.82;;;;;;;-141.50;100.00;63355.56;4993415;28;20585;-82
2022/01/19 11:38:34;;;;;;;8.02;5.55;;;;;;;-141.50;100.00;63355.56;5000147;28;20373;-77
2022/01/19 11:41:23;;;;;;;7.80;5.43;;;;;;;-141.50;100.00;63355.56;5004454;28;20053;-80
2022/01/19 11:43:56;;;;;;;6.50;4.88;;;;;;;-141.50;100.00;63355.56;4993143;28;20096;-81
2022/01/19 11:46:27;;;;;;;5.72;4.10;;;;;;;-141.50;100.00;63355.56;5010692;28;20049;-80
2022/01/19 11:48:54;;;;;;;6.50;4.25;;;;;;;-141.50;100.00;63355.56;5009520;28;20085;-81
2022/01/19 11:51:20;;;;;;;4.93;3.60;;;;;;;-141.50;100.00;63355.56;5011014;28;20045;-81
2022/01/19 11:54:30;;;;;;;4.38;3.38;;;;;;;-141.50;100.00;63355.56;5010450;28;20057;-81
2022/01/19 11:57:00;;;;;;;5.07;3.95;;;;;;;-141.50;100.00;63355.56;5002974;28;20057;-81
2022/01/19 11:59:30;;;;;;;4.35;3.55;;;;;;;-141.50;100.00;63355.56;5008282;28;20111;-80
2022/01/19 12:02:26;;;;;;;4.30;3.28;;;;;;;-141.50;100.00;63355.56;5010104;28;20062;-80
2022/01/19 12:05:12;;;;;;;4.90;3.90;;;;;;;-141.50;100.00;63355.56;5009868;28;20145;-80
2022/01/19 12:07:42;;;;;;;5.30;3.45;;;;;;;-141.50;100.00;63355.56;5009520;28;20495;-80
2022/01/19 12:10:10;;;;;;;3.92;3.35;;;;;;;-141.50;100.00;63355.56;5008962;28;20160;-80
2022/01/19 12:12:46;;;;;;;4.38;3.53;;;;;;;-141.50;100.00;63355.56;5011347;28;20351;-81
2022/01/19 12:15:46;;;;;;;4.53;3.50;;;;;;;-141.50;100.00;63355.56;5012522;28;20046;-82
2022/01/19 12:18:45;;;;;;;5.55;2.90;;;;;;;-141.50;100.00;63355.56;5010846;28;20141;-79
2022/01/19 12:21:38;;;;;;;4.07;3.28;;;;;;;-141.50;100.00;63355.56;5013143;28;20483;-81
2022/01/19 12:24:34;;;;;;;4.82;3.10;;;;;;;-141.50;100.00;63355.56;5012525;28;20156;-81
2022/01/19 12:27:01;;;;;;;3.42;3.10;;;;;;;-141.50;100.00;63355.56;5012135;28;20274;-82
2022/01/19 12:29:33;;;;;;;3.70;3.20;;;;;;;-141.50;100.00;63355.56;5011222;28;20077;-82
2022/01/19 12:32:02;;;;;;;4.88;3.20;;;;;;;-141.50;100.00;63355.56;5010597;28;20201;-81
2022/01/19 12:34:41;;;;;;;3.97;3.15;;;;;;;-141.50;100.00;63355.56;5013815;28;20474;-81
2022/01/19 12:37:07;;;;;;;4.50;3.30;;;;;;;-141.50;100.00;63355.56;5023630;28;20062;-82
2022/01/19 12:39:37;;;;;;;4.30;3.08;;;;;;;-141.50;100.00;63355.56;5018189;28;20046;-82
2022/01/19 12:42:38;;;;;;;3.97;2.70;;;;;;;-141.50;100.00;63355.56;5017033;28;20054;-81